createdAt,value
2022-08-05T00:02:51.751Z,22.80
2022-08-05T00:08:35.038Z,22.70
2022-08-05T00:14:13.109Z,22.70
2022-08-05T00:19:57.440Z,22.60
2022-08-05T00:25:34.588Z,22.60
2022-08-05T00:31:14.446Z,22.50
2022-08-05T00:37:10.273Z,22.50
2022-08-05T00:42:39.766Z,22.40
2022-08-05T00:48:10.087Z,22.30
2022-08-05T00:54:01.295Z,22.30
2022-08-05T00:59:26.275Z,22.30
2022-08-05T01:05:10.018Z,22.30
2022-08-05T01:10:52.495Z,22.20
2022-08-05T01:16:41.015Z,22.10
2022-08-05T01:23:14.260Z,22.10
2022-08-05T01:28:54.479Z,22.00
2022-08-05T01:34:46.375Z,22.00
2022-08-05T01:40:17.772Z,22.00
2022-08-05T01:45:54.040Z,22.00
2022-08-05T01:51:24.883Z,22.00
2022-08-05T01:58:13.077Z,22.00
2022-08-05T02:02:58.506Z,22.00
2022-08-05T02:08:29.725Z,21.90
2022-08-05T02:14:21.804Z,21.90
2022-08-05T02:20:00.865Z,21.90
2022-08-05T02:25:49.409Z,21.90
2022-08-05T02:31:26.577Z,21.90
2022-08-05T02:37:01.029Z,21.90
2022-08-05T02:42:36.328Z,21.90
2022-08-05T02:48:12.109Z,21.80
2022-08-05T02:53:42.891Z,21.90
2022-08-05T02:59:50.111Z,21.80
2022-08-05T03:05:21.833Z,21.80
2022-08-05T03:11:57.042Z,21.70
2022-08-05T03:17:12.651Z,21.70
2022-08-05T03:22:44.161Z,21.70
2022-08-05T03:28:19.829Z,21.60
2022-08-05T03:33:52.978Z,21.50
2022-08-05T03:39:27.313Z,21.40
2022-08-05T03:44:55.785Z,21.30
2022-08-05T03:50:29.066Z,21.30
2022-08-05T03:56:17.983Z,21.20
2022-08-05T04:01:59.075Z,21.20
2022-08-05T04:07:28.049Z,21.10
2022-08-05T04:13:04.084Z,21.00
2022-08-05T04:18:34.257Z,21.00
2022-08-05T04:24:06.487Z,21.00
2022-08-05T04:29:37.365Z,21.00
2022-08-05T04:35:06.020Z,21.10
2022-08-05T04:40:38.495Z,21.10
2022-08-05T04:46:12.701Z,21.10
2022-08-05T04:51:41.227Z,21.30
2022-08-05T04:57:10.849Z,21.60
2022-08-05T05:02:41.835Z,21.90
2022-08-05T05:08:14.318Z,22.30
2022-08-05T05:13:58.506Z,22.70
2022-08-05T05:19:38.873Z,23.10
2022-08-05T05:25:16.750Z,23.50
2022-08-05T05:30:49.573Z,24.00
2022-08-05T05:36:18.921Z,24.40
2022-08-05T05:41:54.074Z,24.80
2022-08-05T05:47:22.861Z,25.10
2022-08-05T05:53:00.467Z,25.40
2022-08-05T05:58:32.543Z,25.70
2022-08-05T06:04:03.871Z,26.00
2022-08-05T06:10:00.115Z,26.30
2022-08-05T06:15:24.023Z,26.30
2022-08-05T06:20:54.195Z,26.30
2022-08-05T06:26:23.981Z,26.20
2022-08-05T06:31:53.472Z,26.30
2022-08-05T06:37:55.842Z,26.50
2022-08-05T06:43:57.563Z,26.80
2022-08-05T06:49:01.067Z,26.90
2022-08-05T06:54:29.825Z,27.10
2022-08-05T06:59:58.285Z,27.40
2022-08-05T07:05:37.347Z,27.50
2022-08-05T07:11:06.401Z,27.40
2022-08-05T07:18:00.620Z,27.50
2022-08-05T07:22:38.145Z,27.50
2022-08-05T07:28:09.703Z,27.50
2022-08-05T07:33:39.832Z,27.40
2022-08-05T07:40:03.604Z,27.30
2022-08-05T07:44:59.779Z,27.30
2022-08-05T07:50:28.847Z,27.40
2022-08-05T07:56:06.602Z,27.40
2022-08-05T08:01:52.309Z,27.60
2022-08-05T08:07:28.154Z,27.90
2022-08-05T08:12:58.602Z,28.00
2022-08-05T08:18:26.563Z,28.30
2022-08-05T08:24:02.014Z,28.40
2022-08-05T08:30:05.588Z,28.50
2022-08-05T08:35:21.080Z,28.60
2022-08-05T08:40:55.188Z,28.40
2022-08-05T08:46:27.733Z,28.40
2022-08-05T08:52:22.324Z,28.40
2022-08-05T08:57:58.280Z,28.50
2022-08-05T09:03:27.630Z,28.50
2022-08-05T09:09:08.636Z,28.40
2022-08-05T09:14:58.583Z,28.30
2022-08-05T09:20:36.545Z,28.20
2022-08-05T09:26:20.934Z,28.30
2022-08-05T09:32:40.772Z,28.40
2022-08-05T09:38:17.720Z,28.70
2022-08-05T09:43:49.417Z,28.90
2022-08-05T09:49:54.560Z,29.10
2022-08-05T09:55:58.551Z,29.30
2022-08-05T10:01:13.299Z,29.50
2022-08-05T10:06:59.264Z,29.80
2022-08-05T10:12:33.562Z,30.00
2022-08-05T10:18:17.554Z,29.90
2022-08-05T10:23:59.924Z,30.10
2022-08-05T10:30:41.096Z,30.10
2022-08-05T10:35:20.157Z,30.40
2022-08-05T10:41:23.455Z,30.60
2022-08-05T10:46:56.974Z,30.80
2022-08-05T10:53:00.242Z,31.10
2022-08-05T10:58:36.194Z,31.20
2022-08-05T11:04:23.499Z,31.20
2022-08-05T11:10:09.476Z,31.20
2022-08-05T11:15:59.327Z,31.30
2022-08-05T11:21:49.014Z,31.30
2022-08-05T11:27:50.157Z,31.30
2022-08-05T11:33:43.774Z,31.50
2022-08-05T11:39:48.456Z,31.80
2022-08-05T11:45:26.997Z,32.10
2022-08-05T11:51:04.701Z,32.00
2022-08-05T11:56:52.676Z,31.90
2022-08-05T12:02:31.296Z,31.70
2022-08-05T12:08:03.684Z,31.60
2022-08-05T12:13:48.585Z,31.90
2022-08-05T12:20:26.058Z,32.00
2022-08-05T12:25:07.641Z,31.70
2022-08-05T12:30:39.170Z,31.50
2022-08-05T12:36:15.305Z,31.50
2022-08-05T12:41:48.936Z,31.40
2022-08-05T12:47:31.148Z,31.30
2022-08-05T12:53:02.205Z,31.40
2022-08-05T12:58:50.869Z,31.40
2022-08-05T13:04:21.148Z,31.70
2022-08-05T13:09:57.066Z,32.10
2022-08-05T13:15:41.168Z,32.10
2022-08-05T13:21:17.450Z,32.00
2022-08-05T13:26:50.803Z,31.80
2022-08-05T13:32:21.726Z,31.70
2022-08-05T13:37:58.932Z,32.00
2022-08-05T13:43:44.046Z,32.00
2022-08-05T13:49:13.976Z,32.10
2022-08-05T13:54:42.567Z,32.30
2022-08-05T14:00:27.293Z,32.60
2022-08-05T14:06:26.137Z,32.70
2022-08-05T14:12:04.241Z,32.70
2022-08-05T14:17:35.632Z,32.80
2022-08-05T14:23:03.558Z,32.80
2022-08-05T14:28:31.731Z,32.90
2022-08-05T14:34:00.953Z,33.10
2022-08-05T14:39:29.443Z,33.60
2022-08-05T14:44:57.726Z,33.90
2022-08-05T14:50:27.226Z,34.70
2022-08-05T14:55:55.388Z,35.00
2022-08-05T15:01:47.105Z,35.40
2022-08-05T15:07:11.317Z,34.90
2022-08-05T15:13:03.644Z,34.30
2022-08-05T15:18:34.372Z,33.90
2022-08-05T15:24:06.014Z,33.40
2022-08-05T15:29:41.653Z,33.10
2022-08-05T15:35:12.359Z,32.90
2022-08-05T15:41:01.277Z,32.80
2022-08-05T15:46:28.762Z,32.60
2022-08-05T15:52:12.679Z,32.50
2022-08-05T15:57:50.199Z,32.50
2022-08-05T16:03:18.588Z,32.40
2022-08-05T16:08:46.900Z,32.30
2022-08-05T16:14:18.104Z,32.30
2022-08-05T16:20:05.501Z,32.20
2022-08-05T16:25:35.873Z,32.10
2022-08-05T16:31:05.623Z,31.80
2022-08-05T16:36:33.964Z,31.60
2022-08-05T16:42:13.814Z,31.30
2022-08-05T16:47:55.600Z,31.10
2022-08-05T16:54:02.777Z,30.90
2022-08-05T16:59:30.616Z,30.70
2022-08-05T17:04:58.914Z,30.50
2022-08-05T17:10:30.498Z,30.30
2022-08-05T17:16:19.782Z,30.10
2022-08-05T17:21:51.486Z,30.00
2022-08-05T17:27:19.898Z,29.80
2022-08-05T17:32:49.220Z,29.70
2022-08-05T17:38:18.101Z,29.60
2022-08-05T17:43:50.389Z,29.50
2022-08-05T17:49:23.826Z,29.40
2022-08-05T17:54:54.405Z,29.30
2022-08-05T18:00:28.624Z,29.20
2022-08-05T18:06:01.637Z,29.10
2022-08-05T18:11:32.793Z,29.00
2022-08-05T18:17:01.817Z,29.00
2022-08-05T18:22:36.257Z,28.90
2022-08-05T18:28:17.520Z,28.70
2022-08-05T18:33:49.700Z,28.60
2022-08-05T18:39:42.540Z,28.50
2022-08-05T18:45:08.934Z,28.30
2022-08-05T18:50:57.424Z,28.20
2022-08-05T18:56:51.139Z,28.10
2022-08-05T19:02:26.811Z,28.00
2022-08-05T19:08:00.520Z,27.90
2022-08-05T19:13:29.459Z,27.80
2022-08-05T19:19:04.366Z,27.70
2022-08-05T19:24:34.390Z,27.40
2022-08-05T19:30:07.030Z,27.10
2022-08-05T19:35:56.578Z,26.60
2022-08-05T19:41:34.655Z,25.60
2022-08-05T19:47:11.116Z,23.70
2022-08-05T19:52:47.733Z,22.70
2022-08-05T19:58:28.899Z,22.20
2022-08-05T20:03:58.332Z,21.80
2022-08-05T20:09:26.243Z,21.50
2022-08-05T20:14:56.327Z,21.20
2022-08-05T20:20:24.572Z,20.90
2022-08-05T20:25:54.450Z,20.70
2022-08-05T20:31:36.818Z,20.70
2022-08-05T20:37:05.143Z,20.70
2022-08-05T20:42:46.030Z,20.70
2022-08-05T20:48:16.489Z,20.80
2022-08-05T20:53:44.416Z,20.70
2022-08-05T20:59:26.699Z,20.70
2022-08-05T21:04:55.308Z,20.70
2022-08-05T21:10:25.708Z,20.60
2022-08-05T21:15:56.522Z,20.60
2022-08-05T21:21:25.746Z,20.60
2022-08-05T21:27:08.087Z,20.50
2022-08-05T21:32:35.962Z,20.40
2022-08-05T21:38:04.098Z,20.40
2022-08-05T21:43:41.656Z,20.40
2022-08-05T21:49:48.331Z,20.40
2022-08-05T21:55:06.147Z,20.40
2022-08-05T22:00:35.123Z,20.40
2022-08-05T22:06:05.043Z,20.20
2022-08-05T22:11:35.599Z,20.00
2022-08-05T22:17:06.785Z,19.80
2022-08-05T22:22:55.743Z,19.70
2022-08-05T22:28:27.570Z,19.60
2022-08-05T22:34:01.450Z,19.60
2022-08-05T22:39:33.770Z,19.40
2022-08-05T22:45:02.432Z,19.30
2022-08-05T22:50:30.534Z,19.20
2022-08-05T22:55:59.190Z,19.20
2022-08-05T23:02:03.930Z,19.10
2022-08-05T23:07:15.727Z,19.10
2022-08-05T23:12:44.027Z,19.10
2022-08-05T23:18:15.892Z,19.10
2022-08-05T23:23:44.509Z,19.10
2022-08-05T23:29:15.735Z,19.20
2022-08-05T23:34:43.654Z,19.10
2022-08-05T23:40:12.128Z,19.10
2022-08-05T23:45:40.257Z,19.10
2022-08-05T23:51:09.351Z,19.10
2022-08-05T23:56:37.354Z,19.00
